Time;durP1;ratioP1;P1;durP2;ratioP2;P2;SDS_P1;SDS_P2;PMS_P1;PMS_P2;Temp;Humidity;BMP_temperature;BMP_pressure;BME280_temperature;BME280_humidity;BME280_pressure;Samples;Min_cycle;Max_cycle;Signal;HPM_P1;HPM_P2
2022/12/21 00:01:41;;;;;;;48.63;23.80;;;;;;;3.71;100.00;100518.89;5130036;56;1140936;-79
2022/12/21 00:06:47;;;;;;;54.53;22.22;;;;;;;3.71;100.00;100513.66;5135127;55;1141117;-78
2022/12/21 00:11:53;;;;;;;51.00;22.47;;;;;;;3.68;100.00;100530.80;5216880;55;1140981;-76
2022/12/21 00:16:59;;;;;;;53.20;24.75;;;;;;;3.66;100.00;100515.22;5196904;55;1146239;-90
2022/12/21 00:22:04;;;;;;;56.42;25.52;;;;;;;3.64;100.00;100502.67;5187970;55;1141252;-77
2022/12/21 00:27:10;;;;;;;53.03;22.60;;;;;;;3.61;100.00;100501.97;5150793;56;1141092;-78
2022/12/21 00:32:17;;;;;;;58.97;25.30;;;;;;;3.61;100.00;100504.59;5141572;55;1140876;-70
2022/12/21 00:37:22;;;;;;;53.53;24.53;;;;;;;3.55;100.00;100503.11;5196581;55;1140920;-76
2022/12/21 00:42:29;;;;;;;53.20;23.63;;;;;;;3.51;100.00;100497.66;5217000;55;1141137;-77
2022/12/21 00:47:35;;;;;;;55.43;25.43;;;;;;;3.52;100.00;100513.70;5196978;55;1141011;-79
2022/12/21 00:52:41;;;;;;;53.90;25.03;;;;;;;3.46;100.00;100507.03;5129421;56;1141205;-79
2022/12/21 00:57:47;;;;;;;47.93;22.27;;;;;;;3.44;100.00;100496.25;4962353;58;1141083;-72
2022/12/21 01:02:53;;;;;;;53.10;25.27;;;;;;;3.45;100.00;100490.95;5150209;56;1140875;-76
2022/12/21 01:07:59;;;;;;;53.80;24.47;;;;;;;3.41;100.00;100485.48;5151165;55;1144817;-82
2022/12/21 01:13:06;;;;;;;60.73;25.30;;;;;;;3.37;100.00;100477.39;5196670;55;1141137;-86
2022/12/21 01:18:16;;;;;;;48.58;22.22;;;;;;;3.36;100.00;100478.31;5216930;55;1141100;-72
2022/12/21 01:23:22;;;;;;;49.17;24.13;;;;;;;3.37;100.00;100460.86;5170258;55;1141103;-88
2022/12/21 01:28:28;;;;;;;58.70;25.03;;;;;;;3.32;100.00;100472.88;5126970;55;1141135;-83
2022/12/21 01:33:34;;;;;;;48.37;23.13;;;;;;;3.31;100.00;100475.55;5178832;55;1141053;-87
2022/12/21 01:38:43;;;;;;;44.80;22.70;;;;;;;3.29;100.00;100466.48;5196663;55;1140815;-72
2022/12/21 01:43:52;;;;;;;58.53;23.33;;;;;;;3.26;100.00;100457.93;5196599;55;1140769;-77
2022/12/21 01:49:20;;;;;;;51.57;23.07;;;;;;;3.25;100.00;100466.69;5159172;55;1141070;-83
2022/12/21 01:54:31;;;;;;;58.10;22.97;;;;;;;3.20;100.00;100457.79;5150193;55;1141343;-71
2022/12/21 01:59:42;;;;;;;46.60;22.90;;;;;;;3.17;100.00;100442.25;5129162;56;1141127;-80
2022/12/21 02:04:53;;;;;;;51.30;22.90;;;;;;;3.18;100.00;100426.50;5127592;56;1141157;-81
2022/12/21 02:10:00;;;;;;;54.53;23.60;;;;;;;3.18;100.00;100430.42;5190889;55;1141111;-72
2022/12/21 02:15:07;;;;;;;52.40;23.87;;;;;;;3.15;100.00;100434.48;5235937;55;1141007;-71
2022/12/21 02:20:47;;;;;;;56.77;24.70;;;;;;;3.16;100.00;100429.64;5215667;55;1141038;-79
2022/12/21 02:26:19;;;;;;;50.40;23.53;;;;;;;3.16;100.00;100416.58;5136680;55;1140884;-73
2022/12/21 02:31:49;;;;;;;46.98;20.62;;;;;;;3.15;100.00;100414.03;5127189;56;1140952;-80
2022/12/21 02:37:32;;;;;;;49.88;22.45;;;;;;;3.12;100.00;100422.02;5128420;56;1140890;-74
2022/12/21 02:48:34;;;;;;;45.90;19.07;;;;;;;3.08;100.00;100422.62;5091650;55;1141045;-77
2022/12/21 02:53:41;;;;;;;47.17;22.20;;;;;;;3.06;100.00;100415.77;5121135;55;1141032;-83
2022/12/21 02:58:48;;;;;;;45.90;20.60;;;;;;;3.07;100.00;100414.39;5129240;55;1141111;-85
2022/12/21 03:04:03;;;;;;;48.63;22.70;;;;;;;3.06;100.00;100402.25;5138160;55;1140790;-85
2022/12/21 03:09:16;;;;;;;44.48;20.27;;;;;;;3.05;100.00;100411.50;5165392;55;1140898;-83
2022/12/21 03:14:33;;;;;;;41.03;20.63;;;;;;;3.06;100.00;100402.25;5031461;57;1141157;-79
2022/12/21 03:19:55;;;;;;;42.27;19.70;;;;;;;3.05;100.00;100414.95;5191198;55;1141121;-71
2022/12/21 03:25:18;;;;;;;46.13;21.80;;;;;;;3.05;100.00;100415.41;4952865;56;1141063;-86
2022/12/21 03:30:27;;;;;;;39.80;17.13;;;;;;;3.07;100.00;100401.33;5116710;56;1141200;-88
2022/12/21 03:35:46;;;;;;;42.15;18.70;;;;;;;3.08;100.00;100401.72;5208565;55;1140926;-79
2022/12/21 03:40:55;;;;;;;39.93;17.63;;;;;;;3.10;100.00;100393.34;5203075;55;1140811;-86
2022/12/21 03:46:05;;;;;;;42.78;18.87;;;;;;;3.12;100.00;100396.73;5031727;57;1141176;-77
2022/12/21 03:51:21;;;;;;;38.60;17.47;;;;;;;3.15;100.00;100397.05;5162876;55;1141115;-75
2022/12/21 03:56:33;;;;;;;36.53;17.93;;;;;;;3.19;100.00;100380.31;5116459;56;1141031;-81
2022/12/21 04:01:58;;;;;;;37.73;17.83;;;;;;;3.22;100.00;100383.20;5117467;56;1140957;-84
2022/12/21 04:07:07;;;;;;;37.23;16.80;;;;;;;3.23;100.00;100383.13;5139337;55;1141178;-83
2022/12/21 04:17:38;;;;;;;38.23;17.80;;;;;;;3.31;100.00;100384.92;5151964;55;1140979;-72
2022/12/21 04:28:24;;;;;;;38.30;18.50;;;;;;;3.32;100.00;100374.85;5128250;56;1150451;-83
2022/12/21 04:33:32;;;;;;;37.00;17.00;;;;;;;3.31;100.00;100365.78;5179952;55;1140913;-81
2022/12/21 04:38:41;;;;;;;42.17;18.60;;;;;;;3.33;100.00;100353.48;5205463;55;1140938;-73
2022/12/21 04:43:47;;;;;;;36.33;17.00;;;;;;;3.33;100.00;100347.80;5206037;55;1141002;-86
2022/12/21 04:48:53;;;;;;;45.35;18.82;;;;;;;3.32;100.00;100347.87;5186776;55;1141012;-82
2022/12/21 04:53:58;;;;;;;37.97;18.33;;;;;;;3.35;100.00;100343.80;5148215;55;1140950;-85
2022/12/21 04:59:05;;;;;;;40.97;19.10;;;;;;;3.36;100.00;100339.77;5128155;55;1140872;-83
2022/12/21 05:04:11;;;;;;;42.23;19.03;;;;;;;3.34;100.00;100325.96;5127977;55;1141083;-82
2022/12/21 05:09:18;;;;;;;37.93;17.67;;;;;;;3.35;100.00;100324.20;5148204;55;1141017;-75
2022/12/21 05:14:24;;;;;;;43.10;18.20;;;;;;;3.35;100.00;100324.20;5127711;55;1141183;-75
2022/12/21 05:19:30;;;;;;;33.90;16.50;;;;;;;3.32;100.00;100329.11;5127027;55;1141027;-76
2022/12/21 05:24:35;;;;;;;34.98;15.93;;;;;;;3.33;100.00;100333.88;5146894;55;1140896;-79
2022/12/21 05:29:41;;;;;;;40.80;18.67;;;;;;;3.33;100.00;100333.42;5186150;55;1140980;-78
2022/12/21 05:34:48;;;;;;;34.60;16.50;;;;;;;3.32;100.00;100325.19;5154108;55;1141064;-74
2022/12/21 05:39:53;;;;;;;36.25;17.40;;;;;;;3.32;100.00;100319.97;5124914;55;1141077;-78
2022/12/21 05:45:00;;;;;;;44.47;19.67;;;;;;;3.37;100.00;100327.55;5165314;55;1140956;-73
2022/12/21 05:50:09;;;;;;;34.90;15.40;;;;;;;3.35;100.00;100323.73;5212796;55;1140935;-76
2022/12/21 05:55:15;;;;;;;38.73;16.63;;;;;;;3.36;100.00;100330.62;5213254;55;1140996;-76
2022/12/21 06:00:21;;;;;;;38.27;17.17;;;;;;;3.41;100.00;100330.40;5158438;55;1141134;-83
2022/12/21 06:05:27;;;;;;;32.67;16.60;;;;;;;3.41;100.00;100339.55;5124806;56;1140975;-77
2022/12/21 06:10:34;;;;;;;41.83;19.00;;;;;;;3.39;100.00;100330.47;5114460;56;1141071;-79
2022/12/21 06:15:41;;;;;;;36.33;18.20;;;;;;;3.41;100.00;100329.09;5134587;56;1141023;-75
2022/12/21 06:20:54;;;;;;;36.77;17.77;;;;;;;3.39;100.00;100317.41;5114224;56;1140963;-70
2022/12/21 06:26:02;;;;;;;43.83;18.55;;;;;;;3.36;100.00;100316.73;5116729;55;1140947;-76
2022/12/21 06:31:14;;;;;;;33.30;15.23;;;;;;;3.35;100.00;100310.66;5132674;55;1141001;-79
2022/12/21 06:36:19;;;;;;;36.13;16.70;;;;;;;3.37;100.00;100314.02;5114991;56;1141012;-79
2022/12/21 06:41:25;;;;;;;34.73;16.77;;;;;;;3.32;100.00;100306.05;5114676;56;1141192;-73
2022/12/21 06:46:31;;;;;;;41.80;18.87;;;;;;;3.31;100.00;100307.81;5135245;55;1141141;-76
2022/12/21 06:51:37;;;;;;;39.73;17.30;;;;;;;3.33;100.00;100316.42;5115062;55;1141088;-76
2022/12/21 06:56:42;;;;;;;39.20;18.47;;;;;;;3.26;100.00;100314.19;5114973;56;1141105;-79
2022/12/21 07:01:48;;;;;;;40.23;18.33;;;;;;;3.32;100.00;100326.50;5115055;56;1140878;-66
2022/12/21 07:06:54;;;;;;;38.87;19.93;;;;;;;3.34;100.00;100330.34;5142839;55;1140824;-76
2022/12/21 07:12:00;;;;;;;51.37;26.37;;;;;;;3.34;100.00;100332.95;4994164;57;1140987;-77
2022/12/21 07:17:05;;;;;;;73.23;33.83;;;;;;;3.32;100.00;100342.18;5030259;57;1141102;-81
2022/12/21 07:22:11;;;;;;;53.87;31.20;;;;;;;3.33;100.00;100344.33;5000671;56;1142874;-81
2022/12/21 07:27:17;;;;;;;60.70;25.90;;;;;;;3.35;100.00;100343.80;5145860;55;1141233;-73
2022/12/21 07:32:23;;;;;;;55.60;30.43;;;;;;;3.35;100.00;100334.65;5147839;55;1141204;-72
2022/12/21 07:37:28;;;;;;;127.97;48.90;;;;;;;3.38;100.00;100330.09;5233543;55;1140946;-75
2022/12/21 07:42:34;;;;;;;60.27;25.90;;;;;;;3.40;100.00;100341.77;5212566;55;1143003;-83
2022/12/21 07:47:47;;;;;;;47.93;19.33;;;;;;;3.40;100.00;100336.55;5208812;55;1140858;-76
2022/12/21 07:52:53;;;;;;;76.22;27.48;;;;;;;3.43;100.00;100332.48;5125348;56;1140975;-77
2022/12/21 07:58:00;;;;;;;51.73;23.20;;;;;;;3.45;100.00;100326.25;5145096;56;1140848;-78
2022/12/21 08:03:07;;;;;;;61.33;28.03;;;;;;;3.48;100.00;100326.56;5125609;56;1142670;-74
2022/12/21 08:08:12;;;;;;;49.23;21.73;;;;;;;3.50;100.00;100330.80;5167059;55;1140978;-74
2022/12/21 08:13:18;;;;;;;46.95;20.30;;;;;;;3.52;100.00;100328.07;5224078;55;1141151;-81
2022/12/21 08:18:25;;;;;;;59.40;25.03;;;;;;;3.53;100.00;100333.69;4969096;57;1141034;-75
2022/12/21 08:23:31;;;;;;;47.60;20.17;;;;;;;3.57;100.00;100333.07;5150942;55;1140875;-75
2022/12/21 08:28:36;;;;;;;35.43;15.87;;;;;;;3.57;100.00;100336.53;5205247;55;1141088;-74
2022/12/21 08:33:43;;;;;;;47.83;20.60;;;;;;;3.61;100.00;100344.61;5145227;55;1140908;-70
2022/12/21 08:38:49;;;;;;;55.27;23.47;;;;;;;3.66;100.00;100337.38;5113597;56;1141217;-77
2022/12/21 08:43:55;;;;;;;41.17;19.53;;;;;;;3.70;100.00;100336.73;5114128;56;1140851;-72
2022/12/21 08:49:01;;;;;;;45.67;20.40;;;;;;;3.71;100.00;100341.05;5139249;55;1140915;-73
2022/12/21 08:54:08;;;;;;;31.57;14.83;;;;;;;3.71;100.00;100343.20;5110833;56;1140857;-77
2022/12/21 08:59:14;;;;;;;44.77;19.00;;;;;;;3.76;100.00;100340.35;5133503;56;1140997;-76
2022/12/21 09:04:20;;;;;;;59.40;19.43;;;;;;;3.80;100.00;100349.27;5174311;56;1140926;-72
2022/12/21 09:09:26;;;;;;;37.50;15.40;;;;;;;3.84;100.00;100342.93;5113812;55;1140884;-69
2022/12/21 09:14:32;;;;;;;36.63;15.90;;;;;;;3.87;100.00;100339.31;5130441;55;1141044;-75
2022/12/21 09:19:39;;;;;;;35.28;15.55;;;;;;;3.88;100.00;100339.70;5163087;55;1141285;-77
2022/12/21 09:24:44;;;;;;;31.97;16.43;;;;;;;3.91;100.00;100330.38;5155079;55;1141065;-77
2022/12/21 09:29:50;;;;;;;42.73;20.27;;;;;;;3.92;100.00;100337.31;5125497;56;1140885;-70
2022/12/21 09:34:57;;;;;;;43.53;19.60;;;;;;;3.95;100.00;100334.53;5125961;55;1141247;-77
2022/12/21 09:40:04;;;;;;;36.27;17.30;;;;;;;3.99;100.00;100328.66;5152611;55;1140957;-77
2022/12/21 09:45:14;;;;;;;36.43;15.53;;;;;;;3.99;100.00;100329.96;5144899;55;1141010;-76
2022/12/21 09:50:30;;;;;;;40.58;18.80;;;;;;;3.99;100.00;100329.96;5125641;56;1141202;-73
2022/12/21 09:55:40;;;;;;;42.33;20.57;;;;;;;3.97;100.00;100312.22;5211427;55;1140826;-73
2022/12/21 10:00:52;;;;;;;36.20;18.47;;;;;;;3.98;100.00;100318.65;5200035;55;1140830;-76
2022/12/21 10:06:04;;;;;;;34.08;17.02;;;;;;;4.01;100.00;100322.88;5103494;56;1140983;-76
2022/12/21 10:12:01;;;;;;;36.30;17.47;;;;;;;4.04;100.00;100324.03;5146163;55;1141939;-80
2022/12/21 10:17:23;;;;;;;37.20;19.70;;;;;;;4.05;100.00;100320.48;5078533;56;1141134;-70
2022/12/21 10:22:39;;;;;;;49.00;23.90;;;;;;;4.06;100.00;100310.41;5075026;55;1141178;-77
2022/12/21 10:27:59;;;;;;;35.40;17.90;;;;;;;4.06;100.00;100302.09;5214716;55;1140976;-79
2022/12/21 10:33:08;;;;;;;39.17;18.20;;;;;;;4.09;100.00;100294.08;5165567;55;1141030;-74
2022/12/21 10:38:22;;;;;;;50.07;25.57;;;;;;;4.09;100.00;100294.08;5107331;56;1140897;-72
2022/12/21 10:43:25;;;;;;;34.10;16.43;;;;;;;4.10;100.00;100301.00;5127331;56;1143112;-77
2022/12/21 10:48:31;;;;;;;36.30;17.40;;;;;;;4.13;100.00;100281.65;5118020;55;1142965;-77
2022/12/21 10:53:36;;;;;;;42.23;21.73;;;;;;;4.17;100.00;100301.03;5184613;55;1142994;-79
2022/12/21 10:58:47;;;;;;;48.93;23.53;;;;;;;4.18;100.00;100289.64;5176065;55;1140821;-73
2022/12/21 11:04:11;;;;;;;39.40;17.70;;;;;;;4.21;100.00;100284.23;5131731;55;1140998;-77
2022/12/21 11:09:39;;;;;;;41.13;18.92;;;;;;;4.27;100.00;100291.39;4940343;57;1143143;-72
2022/12/21 11:14:45;;;;;;;35.78;19.55;;;;;;;4.30;100.00;100281.56;4972666;57;1140956;-77
2022/12/21 11:20:06;;;;;;;44.60;19.87;;;;;;;4.33;100.00;100279.25;5004174;57;1141125;-69
2022/12/21 11:25:21;;;;;;;51.17;28.00;;;;;;;4.35;100.00;100274.77;5002209;57;1141099;-71
2022/12/21 11:30:35;;;;;;;42.08;16.32;;;;;;;4.36;100.00;100278.63;5040336;57;1142984;-72
2022/12/21 11:35:42;;;;;;;42.20;19.93;;;;;;;4.36;100.00;100276.00;5113631;56;1140937;-72
2022/12/21 11:41:00;;;;;;;47.63;19.00;;;;;;;4.37;100.00;100267.69;5099312;56;1141122;-73
2022/12/21 11:46:31;;;;;;;45.70;21.20;;;;;;;4.41;100.00;100262.66;5142895;55;1142961;-81
2022/12/21 11:52:13;;;;;;;48.83;22.23;;;;;;;4.40;100.00;100252.66;5126195;55;1141122;-79
2022/12/21 11:57:43;;;;;;;40.45;18.62;;;;;;;4.41;100.00;100249.11;5047545;56;1140886;-72
2022/12/21 12:03:24;;;;;;;50.38;21.48;;;;;;;4.42;100.00;100243.41;5106854;56;1140816;-77
2022/12/21 12:09:07;;;;;;;65.63;31.60;;;;;;;4.46;100.00;100247.52;5143275;55;1142973;-70
2022/12/21 12:14:39;;;;;;;64.40;27.83;;;;;;;4.47;100.00;100243.97;5194397;55;1141045;-74
2022/12/21 12:20:12;;;;;;;77.20;32.43;;;;;;;4.48;100.00;100245.66;5144082;55;1140962;-72
2022/12/21 12:25:52;;;;;;;76.35;35.78;;;;;;;4.52;100.00;100238.86;5123069;56;1143111;-75
2022/12/21 12:31:27;;;;;;;57.20;26.53;;;;;;;4.52;100.00;100230.16;5126960;56;1140956;-73
2022/12/21 12:37:07;;;;;;;50.98;24.80;;;;;;;4.54;100.00;100219.13;5032709;57;1140975;-79
2022/12/21 12:42:20;;;;;;;57.43;27.13;;;;;;;4.56;100.00;100222.51;5094753;56;1143253;-74
2022/12/21 12:47:49;;;;;;;50.47;24.70;;;;;;;4.57;100.00;100228.13;5144821;56;1143062;-73
2022/12/21 12:53:19;;;;;;;57.77;27.30;;;;;;;4.56;100.00;100224.66;5041471;57;1140917;-78
2022/12/21 12:59:01;;;;;;;52.93;26.77;;;;;;;4.57;100.00;100235.52;5083715;56;1140913;-70
2022/12/21 13:04:38;;;;;;;64.60;29.90;;;;;;;4.57;100.00;100230.75;5113370;56;1143171;-75
2022/12/21 13:10:09;;;;;;;51.47;25.83;;;;;;;4.57;100.00;100225.51;5128335;56;1143104;-82
2022/12/21 13:15:26;;;;;;;65.83;34.23;;;;;;;4.51;100.00;100210.98;4823424;58;1143223;-75
2022/12/21 13:20:34;;;;;;;84.43;43.57;;;;;;;4.59;100.00;100223.16;4840349;58;1140942;-77
2022/12/21 13:25:57;;;;;;;62.10;32.47;;;;;;;4.63;100.00;100229.53;5010988;57;1143383;-81
2022/12/21 13:31:07;;;;;;;54.60;25.50;;;;;;;4.62;100.00;100223.45;5022808;57;1143033;-78
2022/12/21 13:36:16;;;;;;;57.88;25.17;;;;;;;4.65;100.00;100227.20;4919793;58;1141465;-77
2022/12/21 13:41:42;;;;;;;63.33;29.18;;;;;;;4.65;100.00;100226.36;4877792;58;1140938;-74
2022/12/21 13:46:49;;;;;;;62.80;28.87;;;;;;;4.65;100.00;100231.13;4926296;58;1142987;-73
2022/12/21 13:52:00;;;;;;;71.65;29.07;;;;;;;4.67;100.00;100227.13;5000959;56;1143087;-77
2022/12/21 13:57:22;;;;;;;76.47;30.97;;;;;;;4.67;100.00;100228.43;5134383;56;1142986;-72
2022/12/21 14:02:45;;;;;;;97.57;43.93;;;;;;;4.67;100.00;100236.29;5114821;56;1140951;-75
2022/12/21 14:08:20;;;;;;;74.50;35.33;;;;;;;4.66;100.00;100224.97;5116789;55;1141027;-76
2022/12/21 14:13:57;;;;;;;70.60;34.07;;;;;;;4.64;100.00;100224.20;5159937;55;1143116;-78
2022/12/21 14:19:16;;;;;;;57.30;26.97;;;;;;;4.65;100.00;100235.53;5178133;55;1143164;-75
2022/12/21 14:24:28;;;;;;;59.38;24.82;;;;;;;4.65;100.00;100237.69;5178902;55;1143007;-73
2022/12/21 14:29:38;;;;;;;60.07;24.77;;;;;;;4.63;100.00;100227.75;5212742;55;1141087;-73
2022/12/21 14:35:03;;;;;;;66.23;25.60;;;;;;;4.62;100.00;100237.85;5141015;55;1143041;-71
2022/12/21 14:40:23;;;;;;;59.90;28.93;;;;;;;4.63;100.00;100234.30;5125787;56;1143096;-72
2022/12/21 14:45:42;;;;;;;65.12;25.55;;;;;;;4.62;100.00;100226.06;5110537;56;1143175;-70
2022/12/21 14:51:04;;;;;;;58.67;23.57;;;;;;;4.64;100.00;100237.30;5125730;55;1143058;-73
2022/12/21 14:56:16;;;;;;;69.53;27.83;;;;;;;4.60;100.00;100234.47;5126735;55;1140845;-68
2022/12/21 15:01:35;;;;;;;72.83;30.90;;;;;;;4.56;100.00;100239.07;5126605;55;1141004;-66
2022/12/21 15:06:46;;;;;;;69.13;27.97;;;;;;;4.54;100.00;100244.86;5146581;55;1140890;-71
2022/12/21 15:12:20;;;;;;;86.73;33.80;;;;;;;4.51;100.00;100248.95;5126189;56;1140913;-70
2022/12/21 15:17:32;;;;;;;70.08;29.37;;;;;;;4.48;100.00;100261.37;5137284;55;1141059;-67
2022/12/21 15:22:53;;;;;;;81.60;30.00;;;;;;;4.44;100.00;100263.77;5183895;55;1141155;-68
2022/12/21 15:28:18;;;;;;;150.20;62.00;;;;;;;4.43;100.00;100264.23;5127787;55;1140992;-70
2022/12/21 15:33:35;;;;;;;140.70;57.27;;;;;;;4.42;100.00;100272.20;5079501;56;1142998;-69
2022/12/21 15:38:46;;;;;;;188.10;80.27;;;;;;;4.42;100.00;100267.81;5134812;56;1142874;-70
2022/12/21 15:44:25;;;;;;;158.43;67.10;;;;;;;4.39;100.00;100264.05;5116869;55;1143063;-69
2022/12/21 15:49:51;;;;;;;114.80;52.35;;;;;;;4.39;100.00;100269.75;4970883;57;1143161;-67
2022/12/21 15:55:02;;;;;;;96.57;42.17;;;;;;;4.37;100.00;100261.98;5193635;55;1143006;-71
2022/12/21 16:00:14;;;;;;;87.20;37.23;;;;;;;4.38;100.00;100252.36;5030549;57;1140860;-68
2022/12/21 16:05:25;;;;;;;87.85;33.58;;;;;;;4.40;100.00;100246.11;5193803;55;1142972;-69
2022/12/21 16:10:36;;;;;;;204.63;81.57;;;;;;;4.42;100.00;100218.06;5211665;55;1143201;-71
2022/12/21 16:15:44;;;;;;;90.83;41.03;;;;;;;4.46;100.00;100204.31;5235760;55;1145318;-70
2022/12/21 16:21:06;;;;;;;83.23;34.40;;;;;;;4.45;100.00;100216.55;5215593;55;1143029;-69
2022/12/21 16:26:27;;;;;;;79.83;30.23;;;;;;;4.43;100.00;100213.17;5117272;55;1143053;-67
2022/12/21 16:31:38;;;;;;;80.80;31.73;;;;;;;4.42;100.00;100227.23;5135350;55;1143035;-69
2022/12/21 16:36:43;;;;;;;81.27;34.33;;;;;;;4.40;100.00;100214.69;5010432;57;1143039;-73
2022/12/21 16:41:50;;;;;;;76.90;29.77;;;;;;;4.41;100.00;100215.53;5193413;55;1143054;-69
2022/12/21 16:47:17;;;;;;;77.67;27.22;;;;;;;4.42;100.00;100202.82;5010408;57;1143173;-72
2022/12/21 16:52:43;;;;;;;77.32;31.12;;;;;;;4.44;100.00;100204.86;5139072;55;1143179;-69
2022/12/21 16:57:52;;;;;;;75.30;31.67;;;;;;;4.46;100.00;100202.53;5114441;56;1143102;-69
2022/12/21 17:03:11;;;;;;;100.00;45.67;;;;;;;4.47;100.00;100210.77;5114293;56;1143123;-70
2022/12/21 17:08:24;;;;;;;73.60;26.93;;;;;;;4.50;100.00;100211.91;5073805;55;1145281;-70
2022/12/21 17:13:31;;;;;;;76.82;27.17;;;;;;;4.50;100.00;100217.14;5118070;55;1143095;-68
2022/12/21 17:18:44;;;;;;;76.37;30.20;;;;;;;4.50;100.00;100223.70;5091959;56;1143274;-71
2022/12/21 17:23:58;;;;;;;74.13;31.03;;;;;;;4.52;100.00;100220.52;5114626;55;1143123;-74
2022/12/21 17:29:06;;;;;;;73.92;29.65;;;;;;;4.51;100.00;100220.14;5114336;56;1143029;-70
2022/12/21 17:34:25;;;;;;;69.03;25.10;;;;;;;4.51;100.00;100204.44;5134715;55;1142949;-71
2022/12/21 17:39:31;;;;;;;73.37;29.87;;;;;;;4.55;100.00;100213.81;5114811;55;1143117;-69
2022/12/21 17:44:37;;;;;;;79.87;31.83;;;;;;;4.55;100.00;100215.58;5114629;55;1142956;-70
2022/12/21 17:49:42;;;;;;;74.23;27.20;;;;;;;4.55;100.00;100219.52;5135331;55;1143036;-71
2022/12/21 17:54:48;;;;;;;71.63;28.40;;;;;;;4.54;100.00;100219.98;5115012;56;1143088;-72
2022/12/21 17:59:54;;;;;;;57.48;22.58;;;;;;;4.55;100.00;100218.20;5115080;56;1143290;-71
2022/12/21 18:05:02;;;;;;;77.17;34.83;;;;;;;4.53;100.00;100216.13;5088750;56;1143028;-68
2022/12/21 18:10:29;;;;;;;57.77;22.53;;;;;;;4.52;100.00;100223.14;5113994;55;1143155;-71
2022/12/21 18:15:38;;;;;;;62.33;25.90;;;;;;;4.49;100.00;100214.15;5096303;55;1143080;-68
2022/12/21 18:20:50;;;;;;;53.57;23.87;;;;;;;4.48;100.00;100212.45;5134764;55;1143189;-71
2022/12/21 18:25:57;;;;;;;71.10;31.17;;;;;;;4.49;100.00;100203.67;5115050;55;1143437;-70
2022/12/21 18:31:17;;;;;;;49.98;22.45;;;;;;;4.50;100.00;100198.81;5114751;55;1143206;-68
2022/12/21 18:36:28;;;;;;;67.60;29.77;;;;;;;4.49;100.00;100193.66;5135260;56;1146860;-73
2022/12/21 18:41:33;;;;;;;88.30;32.60;;;;;;;4.46;100.00;100189.91;5114842;56;1143042;-70
2022/12/21 18:46:43;;;;;;;165.87;59.87;;;;;;;4.46;100.00;100179.43;5114565;56;1143018;-70
2022/12/21 18:51:50;;;;;;;240.25;80.50;;;;;;;4.51;100.00;100185.26;5202353;55;1145326;-70
2022/12/21 18:56:56;;;;;;;151.23;58.00;;;;;;;4.52;100.00;100172.08;5215288;55;1145145;-71
2022/12/21 19:02:01;;;;;;;144.40;56.83;;;;;;;4.53;100.00;100182.94;5029053;57;1143229;-67
2022/12/21 19:07:11;;;;;;;192.50;90.53;;;;;;;4.53;100.00;100182.94;5209270;55;1145123;-71
2022/12/21 19:12:18;;;;;;;180.90;93.33;;;;;;;4.52;100.00;100190.41;5134722;56;1145469;-69
2022/12/21 19:17:32;;;;;;;70.85;29.80;;;;;;;4.53;100.00;100186.02;5111070;55;1145106;-71
2022/12/21 19:22:36;;;;;;;60.98;26.20;;;;;;;4.54;100.00;100181.16;5114639;56;1142983;-69
2022/12/21 19:27:42;;;;;;;92.13;33.43;;;;;;;4.53;100.00;100174.23;5135074;56;1141121;-71
2022/12/21 19:32:48;;;;;;;62.23;27.53;;;;;;;4.53;100.00;100165.06;5138388;55;1141165;-72
2022/12/21 19:37:54;;;;;;;40.77;18.70;;;;;;;4.53;100.00;100168.99;5028997;57;1143072;-71
2022/12/21 19:43:02;;;;;;;48.15;23.30;;;;;;;4.55;100.00;100169.75;5146226;55;1143136;-69
2022/12/21 19:48:30;;;;;;;56.93;25.00;;;;;;;4.56;100.00;100167.05;5048716;56;1142969;-70
2022/12/21 19:53:37;;;;;;;70.70;31.87;;;;;;;4.59;100.00;100158.98;5101960;56;1143063;-71
2022/12/21 19:58:45;;;;;;;56.93;25.40;;;;;;;4.62;100.00;100147.49;5179946;55;1142995;-67
2022/12/21 20:03:51;;;;;;;48.07;22.30;;;;;;;4.64;100.00;100157.41;5010496;57;1143228;-70
2022/12/21 20:08:57;;;;;;;50.67;22.75;;;;;;;4.64;100.00;100177.52;5134201;56;1143073;-67
2022/12/21 20:14:03;;;;;;;46.53;22.50;;;;;;;4.63;100.00;100167.98;5150985;55;1143211;-69
2022/12/21 20:19:13;;;;;;;53.23;21.83;;;;;;;4.60;100.00;100165.06;5047727;56;1143249;-73
2022/12/21 20:24:19;;;;;;;160.73;69.63;;;;;;;4.58;100.00;100158.61;5134367;56;1143118;-72
2022/12/21 20:29:25;;;;;;;67.87;28.95;;;;;;;4.57;100.00;100150.87;5136964;55;1145051;-72
2022/12/21 20:34:33;;;;;;;46.70;24.07;;;;;;;4.56;100.00;100152.64;4984013;57;1143212;-68
2022/12/21 20:39:39;;;;;;;38.50;18.80;;;;;;;4.55;100.00;100155.35;5140100;56;1143176;-69
2022/12/21 20:44:54;;;;;;;38.63;18.63;;;;;;;4.57;100.00;100154.80;5125425;56;1143054;-68
2022/12/21 20:50:02;;;;;;;45.53;20.73;;;;;;;4.59;100.00;100131.48;5130432;55;1143150;-68
2022/12/21 21:00:40;;;;;;;38.88;18.42;;;;;;;4.68;100.00;100138.44;5166235;55;1142984;-73
2022/12/21 21:05:46;;;;;;;46.20;21.67;;;;;;;4.67;100.00;100128.43;5139029;55;1143079;-70
2022/12/21 21:15:59;;;;;;;35.65;18.52;;;;;;;4.74;100.00;100132.81;5100980;55;1143226;-70
2022/12/21 21:26:29;;;;;;;37.70;19.10;;;;;;;4.76;100.00;100122.63;5118147;56;1143357;-69
2022/12/21 21:31:34;;;;;;;35.52;16.97;;;;;;;4.79;100.00;100132.09;5144909;56;1143277;-69
2022/12/21 21:36:44;;;;;;;32.30;15.03;;;;;;;4.80;100.00;100124.60;5200624;55;1143222;-71
2022/12/21 21:41:51;;;;;;;37.83;16.57;;;;;;;4.83;100.00;100110.86;5203014;55;1143059;-70
